Time;durP1;ratioP1;P1;durP2;ratioP2;P2;SDS_P1;SDS_P2;PMS_P1;PMS_P2;Temp;Humidity;BMP_temperature;BMP_pressure;BME280_temperature;BME280_humidity;BME280_pressure;Samples;Min_cycle;Max_cycle;Signal;HPM_P1;HPM_P2
2022/10/14 00:00:14;;;;;;;31.95;9.05;;;9.80;99.90;;;;;;4978358;28;20046;-70
2022/10/14 00:02:39;;;;;;;31.88;9.25;;;9.80;99.90;;;;;;4973463;28;20506;-70
2022/10/14 00:05:05;;;;;;;30.85;8.23;;;9.80;99.90;;;;;;4974722;28;20400;-71
2022/10/14 00:07:31;;;;;;;32.70;8.88;;;9.80;99.90;;;;;;4978529;28;20046;-71
2022/10/14 00:09:57;;;;;;;25.52;9.07;;;9.80;99.90;;;;;;4977536;28;20042;-71
2022/10/14 00:12:22;;;;;;;41.47;9.57;;;9.90;99.90;;;;;;4975631;28;20038;-72
2022/10/14 00:14:48;;;;;;;39.28;8.63;;;9.90;99.90;;;;;;4975945;28;20067;-71
2022/10/14 00:17:13;;;;;;;27.63;8.40;;;9.90;99.90;;;;;;4976664;28;20038;-71
2022/10/14 00:19:39;;;;;;;29.15;8.13;;;9.90;99.90;;;;;;4977381;28;20031;-71
2022/10/14 00:22:05;;;;;;;20.33;7.75;;;9.90;99.90;;;;;;4974514;28;20491;-71
2022/10/14 00:24:30;;;;;;;50.65;9.45;;;9.90;99.90;;;;;;4977365;28;20824;-69
2022/10/14 00:26:56;;;;;;;36.22;8.77;;;10.00;99.90;;;;;;4976884;28;20439;-71
2022/10/14 00:29:21;;;;;;;21.20;8.30;;;9.90;99.90;;;;;;4975721;28;20043;-71
2022/10/14 00:31:47;;;;;;;31.10;9.10;;;10.00;99.90;;;;;;4975931;28;20055;-71
2022/10/14 00:34:14;;;;;;;22.23;7.97;;;10.00;99.90;;;;;;4975371;28;20064;-70
2022/10/14 00:36:41;;;;;;;18.58;8.25;;;10.00;99.90;;;;;;4974665;28;20038;-71
2022/10/14 00:39:07;;;;;;;17.23;7.18;;;10.00;99.90;;;;;;4977927;28;20977;-71
2022/10/14 00:41:34;;;;;;;21.10;7.72;;;10.00;99.90;;;;;;4973680;28;20054;-71
2022/10/14 00:44:02;;;;;;;17.65;7.32;;;10.00;99.90;;;;;;4974145;28;20027;-70
2022/10/14 00:46:30;;;;;;;19.77;7.88;;;10.10;99.90;;;;;;4974822;28;20066;-70
2022/10/14 00:48:58;;;;;;;18.20;8.38;;;10.10;99.90;;;;;;4976549;28;20403;-70
2022/10/14 00:51:24;;;;;;;21.77;8.40;;;10.10;99.90;;;;;;4976080;28;20821;-70
2022/10/14 00:53:50;;;;;;;20.60;8.35;;;10.20;99.90;;;;;;4971714;28;20045;-70
2022/10/14 00:56:22;;;;;;;18.40;7.85;;;10.20;99.90;;;;;;4977075;28;20043;-72
2022/10/14 00:58:47;;;;;;;18.90;9.15;;;10.20;99.90;;;;;;4972542;28;20455;-71
2022/10/14 01:01:13;;;;;;;21.73;9.32;;;10.20;99.90;;;;;;4976808;28;20042;-70
2022/10/14 01:03:40;;;;;;;19.75;8.45;;;10.30;99.90;;;;;;4973632;28;20050;-70
2022/10/14 01:06:42;;;;;;;22.00;9.65;;;10.40;99.90;;;;;;4976335;28;20057;-71
2022/10/14 01:09:34;;;;;;;23.23;9.05;;;10.40;99.90;;;;;;4973369;28;20414;-70
2022/10/14 01:12:06;;;;;;;21.30;9.27;;;10.50;99.90;;;;;;4972535;28;20121;-70
2022/10/14 01:14:58;;;;;;;21.83;10.18;;;10.50;99.90;;;;;;4969260;28;20034;-70
2022/10/14 01:17:32;;;;;;;27.88;10.63;;;10.50;99.90;;;;;;4974188;28;20118;-70
2022/10/14 01:20:20;;;;;;;28.65;10.23;;;10.50;99.90;;;;;;4972271;28;20498;-70
2022/10/14 01:23:17;;;;;;;26.45;9.68;;;10.50;99.90;;;;;;4972734;28;20066;-70
2022/10/14 01:25:54;;;;;;;27.95;11.80;;;10.60;99.90;;;;;;4974913;28;20061;-70
2022/10/14 01:28:27;;;;;;;25.05;10.07;;;10.60;99.90;;;;;;4976846;28;20063;-70
2022/10/14 01:31:00;;;;;;;24.48;11.00;;;10.60;99.90;;;;;;4977435;28;20044;-70
2022/10/14 01:33:32;;;;;;;30.20;12.10;;;10.70;99.90;;;;;;4976654;28;20038;-69
2022/10/14 01:36:18;;;;;;;26.60;10.57;;;10.70;99.90;;;;;;4980295;28;20037;-70
2022/10/14 01:38:52;;;;;;;21.55;10.45;;;10.70;99.90;;;;;;4966077;28;20043;-73
2022/10/14 01:41:21;;;;;;;24.95;10.75;;;10.70;99.90;;;;;;4977406;28;20034;-71
2022/10/14 01:43:49;;;;;;;27.55;10.38;;;10.70;99.90;;;;;;4975392;28;20060;-70
2022/10/14 01:46:17;;;;;;;24.02;10.65;;;10.70;99.90;;;;;;4977490;28;20789;-70
2022/10/14 01:48:46;;;;;;;27.13;10.55;;;10.70;99.90;;;;;;4979347;28;20046;-71
2022/10/14 01:51:18;;;;;;;36.27;11.00;;;10.70;99.90;;;;;;4974979;28;20118;-70
2022/10/14 01:53:56;;;;;;;26.73;10.60;;;10.80;99.90;;;;;;4972351;28;20034;-71
2022/10/14 01:56:23;;;;;;;24.60;10.63;;;10.70;99.90;;;;;;4978548;28;20057;-70
2022/10/14 01:58:51;;;;;;;25.95;10.65;;;10.70;99.90;;;;;;4975867;28;20035;-71
2022/10/14 02:01:17;;;;;;;29.40;10.52;;;10.70;99.90;;;;;;4979081;28;20073;-70
2022/10/14 02:03:45;;;;;;;27.35;10.50;;;10.70;99.90;;;;;;4975761;28;20069;-71
2022/10/14 02:06:20;;;;;;;29.38;10.32;;;10.70;99.90;;;;;;4976467;28;20085;-71
2022/10/14 02:09:10;;;;;;;29.08;10.43;;;10.70;99.90;;;;;;4980523;28;20104;-71
2022/10/14 02:12:09;;;;;;;28.70;10.45;;;10.70;99.90;;;;;;4973793;28;20066;-70
2022/10/14 02:14:53;;;;;;;28.40;12.35;;;10.70;99.90;;;;;;4972515;28;20042;-70
2022/10/14 02:17:22;;;;;;;26.77;11.35;;;10.70;99.90;;;;;;4978154;28;20462;-70
2022/10/14 02:19:53;;;;;;;33.72;12.07;;;10.70;99.90;;;;;;4978595;28;20043;-71
2022/10/14 02:22:29;;;;;;;35.65;12.32;;;10.80;99.90;;;;;;4979911;28;20763;-71
2022/10/14 02:24:59;;;;;;;34.83;13.20;;;10.70;99.90;;;;;;4974663;28;20035;-73
2022/10/14 02:27:27;;;;;;;37.20;12.20;;;10.70;99.90;;;;;;4976433;28;20038;-71
2022/10/14 02:29:55;;;;;;;39.10;12.70;;;10.70;99.90;;;;;;4982001;28;20375;-70
2022/10/14 02:32:23;;;;;;;44.60;13.75;;;10.80;99.90;;;;;;4979390;28;20039;-71
2022/10/14 02:34:53;;;;;;;33.17;13.43;;;10.80;99.90;;;;;;4975443;28;20087;-69
2022/10/14 02:37:21;;;;;;;32.35;12.45;;;10.80;99.90;;;;;;4976214;28;20051;-70
2022/10/14 02:40:25;;;;;;;43.00;13.68;;;10.80;99.90;;;;;;4977554;28;20178;-71
2022/10/14 02:42:51;;;;;;;37.33;13.07;;;10.80;99.90;;;;;;4955442;28;20096;-70
2022/10/14 02:45:17;;;;;;;35.28;12.65;;;10.80;99.90;;;;;;4976089;28;20035;-69
2022/10/14 02:47:43;;;;;;;40.75;14.02;;;10.90;99.90;;;;;;4977981;28;20198;-71
2022/10/14 02:50:09;;;;;;;48.40;14.63;;;10.90;99.90;;;;;;4976927;28;20129;-71
2022/10/14 02:52:35;;;;;;;54.15;14.15;;;10.90;99.90;;;;;;4974208;28;20038;-72
2022/10/14 02:55:00;;;;;;;46.15;14.48;;;10.90;99.90;;;;;;4975408;28;20512;-70
2022/10/14 02:57:26;;;;;;;40.50;13.45;;;10.90;99.90;;;;;;4971801;28;20066;-70
2022/10/14 02:59:51;;;;;;;45.28;14.57;;;10.90;99.90;;;;;;4978712;28;20069;-70
2022/10/14 03:02:17;;;;;;;49.97;15.18;;;10.90;99.90;;;;;;4975344;28;20046;-71
2022/10/14 03:04:42;;;;;;;39.70;13.45;;;10.90;99.90;;;;;;4973629;28;20061;-72
2022/10/14 03:07:08;;;;;;;42.47;14.27;;;10.90;99.90;;;;;;4979113;28;20043;-71
2022/10/14 03:09:33;;;;;;;47.53;14.48;;;10.90;99.90;;;;;;4977117;28;20050;-71
2022/10/14 03:11:59;;;;;;;45.53;14.52;;;10.90;99.90;;;;;;4978399;28;20035;-70
2022/10/14 03:14:24;;;;;;;37.28;13.57;;;10.90;99.90;;;;;;4974831;28;20039;-71
2022/10/14 03:16:50;;;;;;;43.60;14.50;;;10.90;99.90;;;;;;4975773;28;20050;-70
2022/10/14 03:19:16;;;;;;;43.33;13.45;;;10.90;99.90;;;;;;4979356;28;20095;-71
2022/10/14 03:21:41;;;;;;;41.72;14.90;;;10.90;99.90;;;;;;4973811;28;20046;-71
2022/10/14 03:24:08;;;;;;;43.58;15.40;;;10.90;99.90;;;;;;4984409;28;20042;-71
2022/10/14 03:26:34;;;;;;;39.70;13.57;;;11.00;99.90;;;;;;4980243;28;20069;-72
2022/10/14 03:28:59;;;;;;;39.42;13.60;;;10.90;99.90;;;;;;4973636;28;20063;-71
2022/10/14 03:31:25;;;;;;;43.00;15.18;;;11.00;99.90;;;;;;4981334;28;20042;-71
2022/10/14 03:33:51;;;;;;;47.30;16.63;;;10.90;99.90;;;;;;4972520;28;20494;-71
2022/10/14 03:36:16;;;;;;;41.15;15.48;;;11.00;99.90;;;;;;4977015;28;20046;-71
2022/10/14 03:38:42;;;;;;;43.80;14.30;;;11.00;99.90;;;;;;4975681;28;20026;-70
2022/10/14 03:41:07;;;;;;;52.20;16.00;;;11.10;99.90;;;;;;4978252;28;20839;-70
2022/10/14 03:43:33;;;;;;;41.30;15.38;;;11.10;99.90;;;;;;4975976;28;20035;-70
2022/10/14 03:45:58;;;;;;;45.75;15.13;;;11.00;99.90;;;;;;4972882;28;20038;-71
2022/10/14 03:48:24;;;;;;;46.85;15.70;;;11.10;99.90;;;;;;4977215;28;20117;-70
2022/10/14 03:50:50;;;;;;;38.22;14.60;;;11.10;99.90;;;;;;4973828;28;20035;-71
2022/10/14 03:53:15;;;;;;;44.45;15.27;;;11.10;99.90;;;;;;4975139;28;20121;-71
2022/10/14 03:55:41;;;;;;;55.58;17.95;;;11.10;99.90;;;;;;4976048;28;20062;-71
2022/10/14 03:58:07;;;;;;;53.83;16.92;;;11.20;99.90;;;;;;4977962;28;20034;-71
2022/10/14 04:00:34;;;;;;;66.18;17.80;;;11.20;99.90;;;;;;4977208;28;20034;-70
2022/10/14 04:03:00;;;;;;;52.72;16.67;;;11.20;99.90;;;;;;4972141;28;20150;-69
2022/10/14 04:05:31;;;;;;;54.03;16.40;;;11.30;99.90;;;;;;4971810;28;20117;-70
2022/10/14 04:07:57;;;;;;;55.47;18.00;;;11.30;99.90;;;;;;4968553;28;20093;-69
2022/10/14 04:10:23;;;;;;;55.03;17.38;;;11.40;99.90;;;;;;4975142;28;20045;-70
2022/10/14 04:12:49;;;;;;;65.93;17.88;;;11.40;99.90;;;;;;4971000;28;20042;-69
2022/10/14 04:15:15;;;;;;;56.22;18.15;;;11.50;99.90;;;;;;4973235;28;20586;-70
2022/10/14 04:17:40;;;;;;;55.10;17.23;;;11.50;99.90;;;;;;4973627;28;20038;-71
2022/10/14 04:20:06;;;;;;;74.32;17.65;;;11.50;99.90;;;;;;4974692;28;20047;-70
2022/10/14 04:22:32;;;;;;;53.70;16.73;;;11.60;99.90;;;;;;4977657;28;20034;-70
2022/10/14 04:24:57;;;;;;;61.13;17.92;;;11.60;99.90;;;;;;4975800;28;20495;-70
2022/10/14 04:27:24;;;;;;;52.22;17.20;;;11.60;99.90;;;;;;4977954;28;20062;-70
2022/10/14 04:29:49;;;;;;;57.97;17.40;;;11.60;99.90;;;;;;4976752;28;20070;-71
2022/10/14 04:32:16;;;;;;;52.67;17.60;;;11.60;99.90;;;;;;4975458;28;20062;-71
2022/10/14 04:34:41;;;;;;;60.40;19.58;;;11.60;99.90;;;;;;4972487;28;20153;-71
2022/10/14 04:37:07;;;;;;;61.10;17.63;;;11.60;99.90;;;;;;4973906;28;20097;-71
2022/10/14 04:39:33;;;;;;;67.68;19.42;;;11.60;99.90;;;;;;4976299;28;20101;-71
2022/10/14 04:41:58;;;;;;;54.85;18.73;;;11.60;99.90;;;;;;4973397;28;20031;-70
2022/10/14 04:44:24;;;;;;;69.43;19.02;;;11.60;99.90;;;;;;4976527;28;20541;-70
2022/10/14 04:46:49;;;;;;;50.22;17.23;;;11.70;99.90;;;;;;4973397;28;20037;-71
2022/10/14 04:49:15;;;;;;;70.22;18.23;;;11.70;99.90;;;;;;4975827;28;20154;-71
2022/10/14 04:51:41;;;;;;;60.65;17.02;;;11.70;99.90;;;;;;4974152;28;20046;-71
2022/10/14 04:54:07;;;;;;;61.92;17.95;;;11.70;99.90;;;;;;4973117;28;20533;-70
2022/10/14 04:56:32;;;;;;;56.30;17.27;;;11.70;99.90;;;;;;4973995;28;20046;-70
2022/10/14 04:58:58;;;;;;;58.33;18.50;;;11.70;99.90;;;;;;4973347;28;20043;-70
2022/10/14 05:01:24;;;;;;;67.93;18.05;;;11.80;99.90;;;;;;4975623;28;20045;-71
2022/10/14 05:03:50;;;;;;;64.82;18.65;;;11.80;99.90;;;;;;4971139;28;20066;-70
2022/10/14 05:06:16;;;;;;;56.45;17.70;;;11.80;99.90;;;;;;4974700;28;20058;-70
2022/10/14 05:08:42;;;;;;;57.58;17.67;;;11.80;99.90;;;;;;4974082;28;20042;-70
2022/10/14 05:11:08;;;;;;;61.70;18.27;;;11.80;99.90;;;;;;4972083;28;20077;-70
2022/10/14 05:13:34;;;;;;;68.20;19.10;;;11.90;99.90;;;;;;4977159;28;20468;-70
2022/10/14 05:16:01;;;;;;;52.67;17.45;;;11.90;99.90;;;;;;4975724;28;20122;-70
2022/10/14 05:18:27;;;;;;;51.17;16.52;;;11.90;99.90;;;;;;4973926;28;20038;-70
2022/10/14 05:20:53;;;;;;;64.18;19.08;;;11.90;99.90;;;;;;4971340;28;20054;-70
2022/10/14 05:23:18;;;;;;;76.70;19.67;;;12.00;99.90;;;;;;4976448;28;20118;-70
2022/10/14 05:25:44;;;;;;;55.05;17.60;;;12.00;99.90;;;;;;4974645;28;20026;-71
2022/10/14 05:28:10;;;;;;;62.90;19.60;;;12.00;99.90;;;;;;4973080;28;20046;-70
2022/10/14 05:30:35;;;;;;;56.75;17.25;;;12.00;99.90;;;;;;4975382;28;20494;-71
2022/10/14 05:33:01;;;;;;;52.63;15.88;;;11.90;99.90;;;;;;4971357;28;20066;-70
2022/10/14 05:35:26;;;;;;;58.65;17.35;;;12.00;99.90;;;;;;4973941;28;20042;-71
2022/10/14 05:37:56;;;;;;;66.38;18.42;;;12.00;99.90;;;;;;4974708;28;20376;-72
2022/10/14 05:40:22;;;;;;;55.25;16.75;;;12.00;99.90;;;;;;4977037;28;20034;-70
2022/10/14 05:42:47;;;;;;;52.40;16.50;;;12.00;99.90;;;;;;4972858;28;20043;-68
2022/10/14 05:45:13;;;;;;;46.05;16.50;;;12.10;99.90;;;;;;4974315;28;20042;-70
2022/10/14 05:47:39;;;;;;;58.85;15.73;;;12.10;99.90;;;;;;4974997;28;20699;-72
2022/10/14 05:50:05;;;;;;;48.63;14.93;;;12.10;99.90;;;;;;4971022;28;20419;-68
2022/10/14 05:52:31;;;;;;;43.20;14.70;;;12.10;99.90;;;;;;4975039;28;20718;-71
2022/10/14 05:54:57;;;;;;;44.20;14.05;;;12.10;99.90;;;;;;4972313;28;20117;-71
2022/10/14 05:57:23;;;;;;;47.85;14.48;;;12.20;99.90;;;;;;4968646;28;20627;-70
2022/10/14 05:59:48;;;;;;;35.30;12.82;;;12.20;99.90;;;;;;4976160;28;20089;-70
2022/10/14 06:02:14;;;;;;;46.85;14.98;;;12.30;99.90;;;;;;4973168;28;20050;-69
2022/10/14 06:04:41;;;;;;;43.67;14.55;;;12.30;99.90;;;;;;4979120;28;20069;-70
2022/10/14 06:07:09;;;;;;;38.47;13.20;;;12.30;99.90;;;;;;4972359;28;20070;-70
2022/10/14 06:09:35;;;;;;;33.90;12.10;;;12.30;99.90;;;;;;4972575;28;20073;-71
2022/10/14 06:12:01;;;;;;;37.08;12.15;;;12.40;99.90;;;;;;4972009;28;20074;-70
2022/10/14 06:14:26;;;;;;;33.22;11.45;;;12.40;99.90;;;;;;4975788;28;20034;-71
2022/10/14 06:16:52;;;;;;;34.75;12.27;;;12.40;99.90;;;;;;4976209;28;20031;-71
2022/10/14 06:19:18;;;;;;;28.75;9.98;;;12.40;99.90;;;;;;4980033;28;20120;-71
2022/10/14 06:21:44;;;;;;;26.83;9.77;;;12.40;99.90;;;;;;4979896;28;20035;-68
2022/10/14 06:24:10;;;;;;;35.65;10.43;;;12.50;99.90;;;;;;4979444;28;20073;-71
2022/10/14 06:26:35;;;;;;;25.95;8.55;;;12.50;99.90;;;;;;4980666;28;20035;-71
2022/10/14 06:29:01;;;;;;;24.33;8.15;;;12.50;99.90;;;;;;4977874;28;20045;-70
2022/10/14 06:31:27;;;;;;;24.60;8.07;;;12.50;99.90;;;;;;4970452;28;20038;-69
2022/10/14 06:33:52;;;;;;;22.55;8.05;;;12.50;99.90;;;;;;4978989;28;20092;-70
2022/10/14 06:36:18;;;;;;;19.48;7.47;;;12.60;99.90;;;;;;4980416;28;20031;-70
2022/10/14 06:38:43;;;;;;;24.73;8.13;;;12.60;99.90;;;;;;4981609;28;20057;-70
2022/10/14 06:41:09;;;;;;;19.35;7.38;;;12.70;99.90;;;;;;4984516;28;20935;-71
2022/10/14 06:43:35;;;;;;;17.15;6.85;;;12.70;99.90;;;;;;4983691;28;20062;-70
2022/10/14 06:46:02;;;;;;;24.27;7.60;;;12.70;99.90;;;;;;4983587;28;20062;-71
2022/10/14 06:48:28;;;;;;;22.33;7.57;;;12.70;99.90;;;;;;4984564;28;20038;-70
2022/10/14 06:50:53;;;;;;;22.08;7.88;;;12.70;99.90;;;;;;4983603;28;20034;-71
2022/10/14 06:53:19;;;;;;;18.80;6.82;;;12.70;99.90;;;;;;4980678;28;20372;-70
2022/10/14 06:55:45;;;;;;;18.70;7.07;;;12.70;99.90;;;;;;4979133;28;20026;-70
2022/10/14 06:58:11;;;;;;;18.63;7.07;;;12.70;99.90;;;;;;4976204;28;20050;-71
2022/10/14 07:00:36;;;;;;;20.35;8.00;;;12.80;99.90;;;;;;4976121;28;20059;-69
2022/10/14 07:03:02;;;;;;;17.33;6.75;;;12.80;99.90;;;;;;4975582;28;20554;-72
2022/10/14 07:05:28;;;;;;;16.35;5.88;;;12.80;99.90;;;;;;4979098;28;20564;-69
2022/10/14 07:07:56;;;;;;;16.25;7.07;;;12.90;99.90;;;;;;4973939;28;20129;-69
2022/10/14 07:10:22;;;;;;;16.85;6.57;;;12.90;99.90;;;;;;4978143;28;20721;-70
2022/10/14 07:12:47;;;;;;;20.67;6.95;;;12.90;99.90;;;;;;4974367;28;20043;-71
2022/10/14 07:15:13;;;;;;;19.33;6.45;;;12.90;99.90;;;;;;4972900;28;20030;-72
2022/10/14 07:17:39;;;;;;;21.42;7.10;;;12.90;99.90;;;;;;4971867;28;20041;-70
2022/10/14 07:20:05;;;;;;;17.70;6.97;;;12.90;99.90;;;;;;4969710;28;20423;-70
2022/10/14 07:22:31;;;;;;;19.55;6.97;;;13.00;99.90;;;;;;4968990;28;20478;-71
2022/10/14 07:24:56;;;;;;;21.45;7.18;;;13.00;99.90;;;;;;4970705;28;20105;-71
2022/10/14 07:27:22;;;;;;;18.98;7.53;;;13.00;99.90;;;;;;4977188;28;20076;-71
2022/10/14 07:29:47;;;;;;;23.77;8.43;;;13.00;99.90;;;;;;4974314;28;20509;-71
2022/10/14 07:32:13;;;;;;;31.40;9.02;;;13.00;99.90;;;;;;4978312;28;20086;-70
2022/10/14 07:34:38;;;;;;;33.10;9.40;;;13.00;99.90;;;;;;4977926;28;20499;-72
2022/10/14 07:37:05;;;;;;;35.92;9.93;;;13.10;99.90;;;;;;4974457;28;20399;-72
2022/10/14 07:39:30;;;;;;;38.50;11.57;;;13.10;99.90;;;;;;4976889;28;20126;-70
2022/10/14 07:41:56;;;;;;;35.55;11.55;;;13.20;99.90;;;;;;4978011;28;20122;-70
2022/10/14 07:44:22;;;;;;;31.58;11.15;;;13.20;99.90;;;;;;4972540;28;20038;-70
2022/10/14 07:46:47;;;;;;;47.50;12.35;;;13.20;99.90;;;;;;4973390;28;20039;-72
2022/10/14 07:49:18;;;;;;;44.05;12.05;;;13.20;99.90;;;;;;4978723;28;20027;-71
2022/10/14 07:51:45;;;;;;;34.13;11.73;;;13.20;99.90;;;;;;4969688;28;20037;-69
2022/10/14 07:54:18;;;;;;;49.70;13.02;;;13.30;99.90;;;;;;4972836;28;20752;-71
2022/10/14 07:56:45;;;;;;;46.53;12.55;;;13.30;99.90;;;;;;4967398;28;20550;-72
2022/10/14 07:59:11;;;;;;;48.08;13.65;;;13.30;99.90;;;;;;4974544;28;20058;-71
2022/10/14 08:01:37;;;;;;;37.25;12.63;;;13.40;99.90;;;;;;4977134;28;20090;-72
2022/10/14 08:04:03;;;;;;;41.47;13.43;;;13.40;99.90;;;;;;4972040;28;20039;-73
2022/10/14 08:06:28;;;;;;;47.58;13.82;;;13.40;99.90;;;;;;4971802;28;20097;-71
2022/10/14 08:08:54;;;;;;;44.05;12.75;;;13.40;99.90;;;;;;4972586;28;20043;-72
2022/10/14 08:11:23;;;;;;;51.20;14.30;;;13.40;99.90;;;;;;4980859;28;20054;-69
2022/10/14 08:13:50;;;;;;;45.57;15.20;;;13.50;99.90;;;;;;4963334;28;20035;-72
2022/10/14 08:16:23;;;;;;;47.70;13.73;;;13.50;99.90;;;;;;4972554;28;20349;-71
2022/10/14 08:18:49;;;;;;;51.05;14.15;;;13.50;99.90;;;;;;4973408;28;20085;-70
2022/10/14 08:21:15;;;;;;;50.35;13.75;;;13.50;99.90;;;;;;4970647;28;20035;-70
2022/10/14 08:23:41;;;;;;;50.90;13.75;;;13.50;99.90;;;;;;4972185;28;20031;-70
2022/10/14 08:26:19;;;;;;;41.90;12.57;;;13.60;99.90;;;;;;4973649;28;20037;-72
2022/10/14 08:28:44;;;;;;;49.92;12.63;;;13.60;99.90;;;;;;4963859;28;20066;-70
2022/10/14 08:31:10;;;;;;;39.17;12.52;;;13.60;99.90;;;;;;4975837;28;20058;-71
2022/10/14 08:33:35;;;;;;;39.67;12.57;;;13.60;99.90;;;;;;4974631;28;20387;-75
2022/10/14 08:36:01;;;;;;;37.85;12.20;;;13.70;99.90;;;;;;4983487;28;20034;-72
2022/10/14 08:38:27;;;;;;;33.85;11.68;;;13.70;99.90;;;;;;4972926;28;20035;-70
2022/10/14 08:41:11;;;;;;;35.22;11.68;;;13.70;99.90;;;;;;4968940;28;20034;-72
2022/10/14 08:43:39;;;;;;;29.60;10.55;;;13.70;99.90;;;;;;4965511;28;20163;-70
2022/10/14 08:46:49;;;;;;;33.45;11.80;;;13.70;99.90;;;;;;4968929;28;20861;-71
2022/10/14 08:49:21;;;;;;;30.75;10.40;;;13.70;99.90;;;;;;4961873;28;20027;-70
2022/10/14 08:51:52;;;;;;;26.42;10.00;;;13.80;99.90;;;;;;4970384;28;20038;-72
2022/10/14 08:54:38;;;;;;;23.95;9.52;;;13.80;99.90;;;;;;4970231;28;20495;-71
2022/10/14 08:57:10;;;;;;;20.00;8.45;;;13.90;99.90;;;;;;4960341;28;20039;-70
2022/10/14 08:59:40;;;;;;;21.67;9.13;;;13.90;99.90;;;;;;4974978;28;20072;-69
2022/10/14 09:02:37;;;;;;;23.65;8.52;;;13.90;99.90;;;;;;4966311;28;20038;-69
2022/10/14 09:05:05;;;;;;;21.35;7.88;;;14.00;99.90;;;;;;4969924;28;20400;-70
2022/10/14 09:07:33;;;;;;;20.23;8.30;;;13.90;99.90;;;;;;4966372;28;20055;-70
2022/10/14 09:10:06;;;;;;;19.08;8.13;;;13.90;99.90;;;;;;4971040;28;20118;-73
2022/10/14 09:12:36;;;;;;;21.17;8.27;;;14.00;99.90;;;;;;4970077;28;20084;-69
2022/10/14 09:15:16;;;;;;;;;;;14.00;99.90;;;;;;4968634;28;20030;-71
2022/10/14 09:18:02;;;;;;;16.70;7.22;;;14.00;99.90;;;;;;4970617;28;19980;-70
2022/10/14 09:20:28;;;;;;;21.73;7.63;;;14.00;99.90;;;;;;4972767;28;20046;-71
2022/10/14 09:23:14;;;;;;;17.15;7.32;;;14.00;99.90;;;;;;4973836;28;20093;-70
2022/10/14 09:25:54;;;;;;;13.90;6.53;;;14.00;99.90;;;;;;4974098;28;20042;-70
2022/10/14 09:28:40;;;;;;;16.10;6.70;;;14.00;99.90;;;;;;4974375;28;20035;-70
2022/10/14 09:31:09;;;;;;;12.95;6.57;;;14.00;99.90;;;;;;4966389;28;20391;-72
2022/10/14 09:33:38;;;;;;;19.17;6.63;;;14.00;99.90;;;;;;4980220;28;20112;-71
2022/10/14 09:36:10;;;;;;;14.43;6.32;;;14.10;99.90;;;;;;4974079;28;20125;-71
2022/10/14 09:38:36;;;;;;;12.07;5.82;;;14.10;99.90;;;;;;4974526;28;20038;-70
2022/10/14 09:41:01;;;;;;;17.50;6.70;;;14.10;99.90;;;;;;4978512;28;20049;-69
2022/10/14 09:43:28;;;;;;;11.98;6.15;;;14.10;99.90;;;;;;4974801;28;20043;-71
2022/10/14 09:45:58;;;;;;;17.23;5.63;;;14.20;99.90;;;;;;4970792;28;21049;-71
2022/10/14 09:48:46;;;;;;;13.10;5.53;;;14.20;99.90;;;;;;4978304;28;20039;-73
2022/10/14 09:51:24;;;;;;;12.27;5.80;;;14.20;99.90;;;;;;4977949;28;20478;-70
2022/10/14 09:53:52;;;;;;;13.07;6.43;;;14.20;99.90;;;;;;4977879;28;20049;-72
2022/10/14 09:56:29;;;;;;;14.40;6.22;;;14.20;99.90;;;;;;4981255;28;20400;-72
2022/10/14 09:58:56;;;;;;;15.45;6.13;;;14.20;99.90;;;;;;4977865;28;20046;-71
2022/10/14 10:01:24;;;;;;;12.88;5.63;;;14.20;99.90;;;;;;4977056;28;20026;-72
2022/10/14 10:03:51;;;;;;;11.90;5.75;;;14.20;99.90;;;;;;4975196;28;20038;-71
2022/10/14 10:06:26;;;;;;;13.63;6.00;;;14.20;99.90;;;;;;4981353;28;20563;-72
2022/10/14 10:08:51;;;;;;;16.63;6.22;;;14.20;99.90;;;;;;4974285;28;20403;-70
2022/10/14 10:11:36;;;;;;;12.88;6.18;;;14.20;99.90;;;;;;4976966;28;20034;-71
2022/10/14 10:14:21;;;;;;;12.23;5.80;;;14.30;99.90;;;;;;4978065;28;20034;-71
2022/10/14 10:17:08;;;;;;;14.20;5.82;;;14.30;99.90;;;;;;4970808;28;20042;-71
2022/10/14 10:19:42;;;;;;;13.38;5.43;;;14.30;99.90;;;;;;4971459;28;20049;-71
2022/10/14 10:22:25;;;;;;;12.90;5.93;;;14.30;99.90;;;;;;4960167;28;20039;-71
2022/10/14 10:25:11;;;;;;;17.02;6.07;;;14.20;99.90;;;;;;4972280;28;20042;-71
2022/10/14 10:27:42;;;;;;;16.70;6.28;;;14.20;99.90;;;;;;4976897;28;20030;-71
2022/10/14 10:30:21;;;;;;;10.85;4.95;;;14.30;99.90;;;;;;4976838;28;20886;-71
2022/10/14 10:32:54;;;;;;;14.48;5.32;;;14.30;99.90;;;;;;4973851;28;20034;-70
2022/10/14 10:35:58;;;;;;;10.20;4.85;;;14.30;99.90;;;;;;4975778;28;20104;-71
2022/10/14 10:38:45;;;;;;;10.75;4.82;;;14.40;99.90;;;;;;4976675;28;20137;-71
2022/10/14 10:41:25;;;;;;;9.50;4.55;;;14.50;99.90;;;;;;4968527;28;20463;-71
2022/10/14 10:44:08;;;;;;;10.13;4.97;;;14.50;99.90;;;;;;4974106;28;20089;-71
2022/10/14 10:46:52;;;;;;;9.07;4.47;;;14.50;99.90;;;;;;4971369;28;20023;-71
2022/10/14 10:49:39;;;;;;;8.55;3.72;;;14.50;99.90;;;;;;4975034;28;20096;-71
2022/10/14 10:52:22;;;;;;;9.63;4.03;;;14.50;99.90;;;;;;4973703;28;20069;-72
2022/10/14 10:55:05;;;;;;;7.60;3.60;;;14.50;99.90;;;;;;4978179;28;20039;-72
2022/10/14 10:57:52;;;;;;;6.03;3.42;;;14.50;99.90;;;;;;4975243;28;20027;-72
2022/10/14 11:00:22;;;;;;;9.73;4.03;;;14.50;99.90;;;;;;4972699;28;20042;-71
2022/10/14 11:03:06;;;;;;;7.15;3.63;;;14.50;99.90;;;;;;4974798;28;20043;-71
2022/10/14 11:06:01;;;;;;;8.68;3.45;;;14.60;99.90;;;;;;4969509;28;20093;-72
2022/10/14 11:14:50;;;;;;;9.23;4.47;;;14.60;99.90;;;;;;4970923;28;20045;-70
2022/10/14 11:17:54;;;;;;;11.63;5.25;;;14.60;99.90;;;;;;4964701;28;20042;-71
2022/10/14 11:20:23;;;;;;;8.50;4.30;;;14.70;99.90;;;;;;4974977;28;20066;-71
2022/10/14 11:23:10;;;;;;;7.75;3.75;;;14.80;99.90;;;;;;4973814;28;20133;-72
2022/10/14 11:25:56;;;;;;;7.90;4.63;;;14.80;99.90;;;;;;4976205;28;20030;-74
2022/10/14 11:28:28;;;;;;;7.75;4.10;;;14.80;99.90;;;;;;4976983;28;20113;-72
2022/10/14 11:31:18;;;;;;;9.82;4.15;;;14.80;99.90;;;;;;4965415;28;20042;-71
2022/10/14 11:34:21;;;;;;;5.70;3.57;;;14.80;99.90;;;;;;4967459;28;20046;-71
2022/10/14 11:36:54;;;;;;;7.30;3.17;;;14.80;99.90;;;;;;4974480;28;20049;-71
2022/10/14 11:39:19;;;;;;;6.75;3.47;;;14.80;99.90;;;;;;4976249;28;20038;-71
2022/10/14 11:42:12;;;;;;;5.75;3.28;;;14.80;99.90;;;;;;4973319;28;20184;-71
2022/10/14 11:44:41;;;;;;;5.47;3.15;;;14.80;99.90;;;;;;4972309;28;20133;-72
2022/10/14 11:47:23;;;;;;;5.85;2.92;;;14.80;99.90;;;;;;4973042;28;20035;-71
2022/10/14 11:50:22;;;;;;;5.93;3.13;;;14.90;99.90;;;;;;4978407;28;20037;-71
2022/10/14 11:53:00;;;;;;;6.45;2.85;;;14.80;99.90;;;;;;4968748;28;20034;-72
2022/10/14 11:55:33;;;;;;;4.75;3.13;;;14.80;99.90;;;;;;4968092;28;20045;-73
2022/10/14 11:58:04;;;;;;;5.95;2.78;;;14.80;99.90;;;;;;4978714;28;20534;-71
2022/10/14 12:00:32;;;;;;;5.85;2.67;;;14.80;99.90;;;;;;4971013;28;20133;-70
2022/10/14 12:03:22;;;;;;;5.63;2.72;;;14.80;99.90;;;;;;4978259;28;20133;-73
2022/10/14 12:06:03;;;;;;;4.28;2.55;;;14.80;99.90;;;;;;4978495;28;20038;-71
2022/10/14 12:08:49;;;;;;;4.57;2.45;;;14.80;99.90;;;;;;4970970;28;20117;-70
2022/10/14 12:11:24;;;;;;;4.38;2.40;;;14.80;99.90;;;;;;4973506;28;20035;-71
2022/10/14 12:14:02;;;;;;;4.25;2.58;;;14.90;99.90;;;;;;4977213;28;20418;-70
2022/10/14 12:16:28;;;;;;;4.95;2.70;;;14.80;99.90;;;;;;4970591;28;20517;-70
2022/10/14 12:18:55;;;;;;;4.93;2.85;;;14.90;99.90;;;;;;4978386;28;20038;-71
2022/10/14 12:21:57;;;;;;;4.55;2.38;;;14.80;99.90;;;;;;4975001;28;20407;-71
2022/10/14 12:24:29;;;;;;;7.60;3.00;;;14.90;99.90;;;;;;4973973;28;20054;-71
2022/10/14 12:26:59;;;;;;;5.93;2.70;;;14.90;99.90;;;;;;4978994;28;20035;-71
2022/10/14 12:29:30;;;;;;;5.73;2.83;;;15.00;99.90;;;;;;4982600;28;20037;-72
2022/10/14 12:32:06;;;;;;;5.63;2.97;;;15.00;99.90;;;;;;4967514;28;20289;-72
2022/10/14 12:34:42;;;;;;;7.05;2.60;;;15.00;99.90;;;;;;4974118;28;20082;-72
2022/10/14 12:37:23;;;;;;;6.43;2.95;;;15.00;99.90;;;;;;4976818;28;20034;-72
2022/10/14 12:40:01;;;;;;;6.22;2.75;;;15.00;99.90;;;;;;4976637;28;20994;-72
2022/10/14 12:42:43;;;;;;;6.28;2.58;;;15.00;99.90;;;;;;4961667;28;20045;-71
2022/10/14 12:45:21;;;;;;;4.70;2.70;;;15.00;99.90;;;;;;4979461;28;20035;-69
2022/10/14 12:47:59;;;;;;;5.82;3.28;;;15.00;99.90;;;;;;4979924;28;20065;-72
2022/10/14 12:50:33;;;;;;;5.20;2.83;;;15.00;99.90;;;;;;4970816;28;20566;-70
2022/10/14 12:53:03;;;;;;;6.47;2.60;;;15.00;99.90;;;;;;4974187;28;20125;-73
2022/10/14 12:55:32;;;;;;;6.30;3.17;;;15.00;99.90;;;;;;4971773;28;20570;-70
2022/10/14 12:58:01;;;;;;;5.68;2.80;;;15.00;99.90;;;;;;4976749;28;20042;-71